createdAt,value
2019-05-18T00:02:08.266Z,15.93
2019-05-18T00:04:41.368Z,15.47
2019-05-18T00:07:11.446Z,16.33
2019-05-18T00:09:41.555Z,15.37
2019-05-18T00:12:11.603Z,15.27
2019-05-18T00:14:41.731Z,15.87
2019-05-18T00:17:24.510Z,14.57
2019-05-18T00:19:43.623Z,15.43
2019-05-18T00:22:13.704Z,15.00
2019-05-18T00:24:43.780Z,14.40
2019-05-18T00:27:15.863Z,17.37
2019-05-18T00:29:45.657Z,16.27
2019-05-18T00:32:15.898Z,14.27
2019-05-18T00:34:45.974Z,16.40
2019-05-18T00:37:16.077Z,14.97
2019-05-18T00:39:46.205Z,15.57
2019-05-18T00:42:16.281Z,16.87
2019-05-18T00:44:46.376Z,15.53
2019-05-18T00:47:16.487Z,15.50
2019-05-18T00:49:46.567Z,14.60
2019-05-18T00:52:16.656Z,16.20
2019-05-18T00:54:46.724Z,16.87
2019-05-18T00:57:16.812Z,16.97
2019-05-18T00:59:46.934Z,16.27
2019-05-18T01:02:17.053Z,16.33
2019-05-18T01:04:47.129Z,17.40
2019-05-18T01:07:17.207Z,18.43
2019-05-18T01:09:47.289Z,16.90
2019-05-18T01:12:17.369Z,18.40
2019-05-18T01:15:46.567Z,16.33
2019-05-18T01:18:16.750Z,16.70
2019-05-18T01:20:47.208Z,17.67
2019-05-18T01:23:17.271Z,17.43
2019-05-18T01:25:47.388Z,17.43
2019-05-18T01:28:17.458Z,17.87
2019-05-18T01:30:47.652Z,17.43
2019-05-18T01:33:17.799Z,17.67
2019-05-18T01:35:47.926Z,16.10
2019-05-18T01:38:18.005Z,16.70
2019-05-18T01:40:48.136Z,16.50
2019-05-18T01:43:18.199Z,17.07
2019-05-18T01:45:48.291Z,16.97
2019-05-18T01:48:18.420Z,16.77
2019-05-18T01:50:48.500Z,17.37
2019-05-18T01:53:18.593Z,16.47
2019-05-18T01:55:48.710Z,17.07
2019-05-18T01:58:18.847Z,17.00
2019-05-18T02:00:48.937Z,15.73
2019-05-18T02:03:19.116Z,16.97
2019-05-18T02:05:49.263Z,17.93
2019-05-18T02:08:19.376Z,17.03
2019-05-18T02:10:49.485Z,17.03
2019-05-18T02:13:19.648Z,16.40
2019-05-18T02:15:49.726Z,16.17
2019-05-18T02:18:28.642Z,15.63
2019-05-18T02:20:51.637Z,17.77
2019-05-18T02:23:21.746Z,16.00
2019-05-18T02:25:51.820Z,15.67
2019-05-18T02:28:21.928Z,17.23
2019-05-18T02:30:52.151Z,18.30
2019-05-18T02:33:22.247Z,17.17
2019-05-18T02:35:52.330Z,16.50
2019-05-18T02:38:22.471Z,17.30
2019-05-18T02:40:52.571Z,18.70
2019-05-18T02:43:22.655Z,19.93
2019-05-18T02:45:52.726Z,18.97
2019-05-18T02:48:22.813Z,18.17
2019-05-18T02:50:52.927Z,20.20
2019-05-18T02:53:22.991Z,18.33
2019-05-18T02:55:53.120Z,19.20
2019-05-18T02:58:23.171Z,18.83
2019-05-18T03:00:53.277Z,19.23
2019-05-18T03:03:23.362Z,18.87
2019-05-18T03:05:53.434Z,18.97
2019-05-18T03:08:23.512Z,18.67
2019-05-18T03:10:53.771Z,19.37
2019-05-18T03:13:23.830Z,20.03
2019-05-18T03:15:53.987Z,19.30
2019-05-18T03:18:24.061Z,19.17
2019-05-18T03:20:54.185Z,19.83
2019-05-18T03:23:24.284Z,21.50
2019-05-18T03:25:54.371Z,18.77
2019-05-18T03:28:24.443Z,20.97
2019-05-18T03:30:54.517Z,20.77
2019-05-18T03:33:29.141Z,18.87
2019-05-18T03:35:56.385Z,19.17
2019-05-18T03:38:26.442Z,20.23
2019-05-18T03:40:56.566Z,20.30
2019-05-18T03:43:26.660Z,21.40
2019-05-18T03:45:56.755Z,21.83
2019-05-18T03:48:26.823Z,21.20
2019-05-18T03:50:56.943Z,20.10
2019-05-18T03:53:27.002Z,21.33
2019-05-18T03:55:57.219Z,19.97
2019-05-18T03:58:27.238Z,21.93
2019-05-18T04:00:57.318Z,21.27
2019-05-18T04:03:27.379Z,19.57
2019-05-18T04:05:57.478Z,18.90
2019-05-18T04:08:27.629Z,20.57
2019-05-18T04:10:57.740Z,20.63
2019-05-18T04:13:27.833Z,17.57
2019-05-18T04:15:57.908Z,17.03
2019-05-18T04:18:27.983Z,18.57
2019-05-18T04:20:58.374Z,17.33
2019-05-18T04:23:28.533Z,18.20
2019-05-18T04:25:58.626Z,18.27
2019-05-18T04:28:28.727Z,18.63
2019-05-18T04:30:58.778Z,17.67
2019-05-18T04:33:28.904Z,16.87
2019-05-18T04:35:59.004Z,18.50
2019-05-18T04:38:29.104Z,17.10
2019-05-18T04:41:02.559Z,17.53
2019-05-18T04:43:32.678Z,17.90
2019-05-18T04:46:02.770Z,17.90
2019-05-18T04:48:32.886Z,16.73
2019-05-18T04:51:02.981Z,17.83
2019-05-18T04:53:33.071Z,18.07
2019-05-18T04:56:03.187Z,17.37
2019-05-18T04:58:33.339Z,17.70
2019-05-18T05:01:03.422Z,17.60
2019-05-18T05:03:33.667Z,16.27
2019-05-18T05:06:03.776Z,15.87
2019-05-18T05:08:33.887Z,19.47
2019-05-18T05:11:04.009Z,17.57
2019-05-18T05:13:34.112Z,17.70
2019-05-18T05:16:04.594Z,16.80
2019-05-18T05:18:34.773Z,16.50
2019-05-18T05:21:04.898Z,17.37
2019-05-18T05:23:34.967Z,16.77
2019-05-18T05:26:05.095Z,17.00
2019-05-18T05:28:35.188Z,16.70
2019-05-18T05:31:05.304Z,16.10
2019-05-18T05:33:38.453Z,17.00
2019-05-18T05:36:08.567Z,15.10
2019-05-18T05:38:38.693Z,15.27
2019-05-18T05:41:08.854Z,13.33
2019-05-18T05:43:38.915Z,14.20
2019-05-18T05:46:08.981Z,13.60
2019-05-18T05:48:39.069Z,13.03
2019-05-18T05:51:09.181Z,11.53
2019-05-18T05:53:39.320Z,12.00
2019-05-18T05:56:09.418Z,12.47
2019-05-18T05:58:39.515Z,12.10
2019-05-18T06:01:09.589Z,11.90
2019-05-18T06:03:39.695Z,12.47
2019-05-18T06:06:09.879Z,11.83
2019-05-18T06:08:40.001Z,11.53
2019-05-18T06:11:11.992Z,11.40
2019-05-18T06:13:42.079Z,12.43
2019-05-18T06:16:13.928Z,11.73
2019-05-18T06:18:44.056Z,11.50
2019-05-18T06:21:14.248Z,11.43
2019-05-18T06:23:44.340Z,11.33
2019-05-18T06:26:14.416Z,10.77
2019-05-18T06:28:44.706Z,11.00
2019-05-18T06:31:16.600Z,10.53
2019-05-18T06:33:46.748Z,11.77
2019-05-18T06:36:16.864Z,10.50
2019-05-18T06:38:46.950Z,10.37
2019-05-18T06:41:17.044Z,10.87
2019-05-18T06:43:47.167Z,14.50
2019-05-18T06:46:17.303Z,11.37
2019-05-18T06:48:47.422Z,13.17
2019-05-18T06:51:19.284Z,11.40
2019-05-18T06:53:49.452Z,11.43
2019-05-18T06:56:19.750Z,11.17
2019-05-18T06:58:51.721Z,11.00
2019-05-18T07:01:21.851Z,10.60
2019-05-18T07:03:51.953Z,10.57
2019-05-18T07:06:22.019Z,11.00
2019-05-18T07:08:52.131Z,10.57
2019-05-18T07:11:22.208Z,11.03
2019-05-18T07:13:52.330Z,11.33
2019-05-18T07:16:22.458Z,11.27
2019-05-18T07:18:52.541Z,10.37
2019-05-18T07:21:22.835Z,10.67
2019-05-18T07:23:52.935Z,10.70
2019-05-18T07:26:23.027Z,10.03
2019-05-18T07:28:53.137Z,10.60
2019-05-18T07:31:23.395Z,10.00
2019-05-18T07:33:53.547Z,10.77
2019-05-18T07:36:23.675Z,10.23
2019-05-18T07:38:53.776Z,10.10
2019-05-18T07:41:23.881Z,10.13
2019-05-18T07:43:54.047Z,9.83
2019-05-18T07:46:24.157Z,10.85
2019-05-18T07:48:54.274Z,10.88
2019-05-18T07:51:36.319Z,11.47
2019-05-18T07:53:56.213Z,10.70
2019-05-18T07:56:26.322Z,9.58
2019-05-18T07:58:56.420Z,10.00
2019-05-18T08:01:26.496Z,10.37
2019-05-18T08:03:56.591Z,10.10
2019-05-18T08:06:26.680Z,9.70
2019-05-18T08:08:56.820Z,9.65
2019-05-18T08:11:27.263Z,10.93
2019-05-18T08:13:57.538Z,9.35
2019-05-18T08:16:28.731Z,10.30
2019-05-18T08:18:58.819Z,10.15
2019-05-18T08:21:28.917Z,10.32
2019-05-18T08:23:59.098Z,9.73
2019-05-18T08:26:29.169Z,9.18
2019-05-18T08:28:59.301Z,9.58
2019-05-18T08:31:29.431Z,9.85
2019-05-18T08:33:59.570Z,9.25
2019-05-18T08:36:29.651Z,9.45
2019-05-18T08:39:01.490Z,8.05
2019-05-18T08:41:31.604Z,9.83
2019-05-18T08:44:01.748Z,8.78
2019-05-18T08:46:31.853Z,8.93
2019-05-18T08:49:01.945Z,8.38
2019-05-18T08:51:32.035Z,8.95
2019-05-18T08:54:02.184Z,8.35
2019-05-18T08:56:32.282Z,8.83
2019-05-18T08:59:02.453Z,9.10
2019-05-18T09:01:32.571Z,8.63
2019-05-18T09:04:02.668Z,9.63
2019-05-18T09:06:32.748Z,9.85
2019-05-18T09:09:04.724Z,10.35
2019-05-18T09:11:34.873Z,10.18
2019-05-18T09:14:05.001Z,9.00
2019-05-18T09:16:35.109Z,8.65
2019-05-18T09:19:05.207Z,9.40
2019-05-18T09:21:35.273Z,8.58
2019-05-18T09:24:05.510Z,8.78
2019-05-18T09:26:35.618Z,8.55
2019-05-18T09:29:05.895Z,8.68
2019-05-18T09:31:35.960Z,8.68
2019-05-18T09:34:06.063Z,8.65
2019-05-18T09:36:36.163Z,9.10
2019-05-18T09:39:07.652Z,9.70
2019-05-18T09:41:37.799Z,9.28
2019-05-18T09:44:07.910Z,9.60
2019-05-18T09:46:38.005Z,10.45
2019-05-18T09:49:08.391Z,9.43
2019-05-18T09:51:38.493Z,9.15
2019-05-18T09:54:08.627Z,10.00
2019-05-18T09:56:38.730Z,9.55
2019-05-18T09:59:08.934Z,8.95
2019-05-18T10:01:39.020Z,8.65
2019-05-18T10:04:09.087Z,7.83
2019-05-18T10:06:39.207Z,9.13
2019-05-18T10:09:09.867Z,8.50
2019-05-18T10:11:39.958Z,7.78
2019-05-18T10:14:10.060Z,8.33
2019-05-18T10:16:40.203Z,8.53
2019-05-18T10:19:10.269Z,8.20
2019-05-18T10:21:40.417Z,7.85
2019-05-18T10:24:10.550Z,7.70
2019-05-18T10:26:40.631Z,8.60
2019-05-18T10:29:10.741Z,7.20
2019-05-18T10:31:40.854Z,6.67
2019-05-18T10:34:10.948Z,6.67
2019-05-18T10:36:41.119Z,6.00
2019-05-18T10:39:11.213Z,5.95
2019-05-18T10:41:41.337Z,6.20
2019-05-18T10:44:11.428Z,7.72
2019-05-18T10:46:41.505Z,8.50
2019-05-18T10:49:11.629Z,9.90
2019-05-18T10:51:41.724Z,8.88
2019-05-18T10:54:14.716Z,10.90
2019-05-18T10:56:44.841Z,10.28
2019-05-18T10:59:14.929Z,11.20
2019-05-18T11:01:45.071Z,9.43
2019-05-18T11:04:15.172Z,9.45
2019-05-18T11:06:45.273Z,8.95
2019-05-18T11:09:15.373Z,9.00
2019-05-18T11:11:45.471Z,9.30
2019-05-18T11:14:18.751Z,8.25
2019-05-18T11:16:47.447Z,7.17
2019-05-18T11:19:17.650Z,7.22
2019-05-18T11:21:47.754Z,7.08
2019-05-18T11:24:17.848Z,7.47
2019-05-18T11:26:47.926Z,6.95
2019-05-18T11:29:23.417Z,6.60
2019-05-18T11:31:51.861Z,6.03
2019-05-18T11:34:21.949Z,6.72
2019-05-18T11:36:52.073Z,9.60
2019-05-18T11:39:22.236Z,7.05
2019-05-18T11:41:52.360Z,7.22
2019-05-18T11:44:22.430Z,7.95
2019-05-18T11:46:52.537Z,8.85
2019-05-18T11:49:28.979Z,11.00
2019-05-18T11:51:57.470Z,9.68
2019-05-18T11:54:27.628Z,7.92
2019-05-18T11:56:57.781Z,6.92
2019-05-18T11:59:27.891Z,6.15
2019-05-18T12:01:57.970Z,6.42
2019-05-18T12:04:28.088Z,6.75
2019-05-18T12:06:58.197Z,6.92
2019-05-18T12:09:28.308Z,8.23
2019-05-18T12:11:58.394Z,8.03
2019-05-18T12:14:28.515Z,7.95
2019-05-18T12:16:58.594Z,8.63
2019-05-18T12:19:28.727Z,8.80
2019-05-18T12:21:58.841Z,8.15
2019-05-18T12:24:28.954Z,8.53
2019-05-18T12:26:59.047Z,8.45
2019-05-18T12:29:29.171Z,9.13
2019-05-18T12:31:59.270Z,8.35
2019-05-18T12:34:29.463Z,8.95
2019-05-18T12:36:59.577Z,9.10
2019-05-18T12:39:29.693Z,8.13
2019-05-18T12:41:59.906Z,8.83
2019-05-18T12:44:30.033Z,7.73
2019-05-18T12:47:00.150Z,7.00
2019-05-18T12:49:30.271Z,7.67
2019-05-18T12:52:00.346Z,6.25
2019-05-18T12:54:45.373Z,7.17
2019-05-18T12:57:02.312Z,7.70
2019-05-18T12:59:32.424Z,7.90
2019-05-18T13:02:02.533Z,8.38
2019-05-18T13:04:32.627Z,9.43
2019-05-18T13:07:02.744Z,8.73
2019-05-18T13:09:32.851Z,7.87
2019-05-18T13:12:02.991Z,7.95
2019-05-18T13:14:33.077Z,7.60
2019-05-18T13:17:03.156Z,8.78
2019-05-18T13:19:33.635Z,8.70
2019-05-18T13:22:03.711Z,9.00
2019-05-18T13:24:44.922Z,7.50
2019-05-18T13:27:05.724Z,7.90
2019-05-18T13:29:35.851Z,7.15
2019-05-18T13:32:05.991Z,7.33
2019-05-18T13:34:36.085Z,7.58
2019-05-18T13:37:06.150Z,7.30
2019-05-18T13:39:37.108Z,6.30
2019-05-18T13:42:07.217Z,6.85
2019-05-18T13:44:38.197Z,6.70
2019-05-18T13:47:08.483Z,7.90
2019-05-18T13:49:38.592Z,7.95
2019-05-18T13:52:08.669Z,7.92
2019-05-18T13:54:40.208Z,7.12
2019-05-18T13:57:10.327Z,7.22
2019-05-18T13:59:40.432Z,8.25
2019-05-18T14:02:10.534Z,7.47
2019-05-18T14:04:42.056Z,7.90
2019-05-18T14:07:12.174Z,7.65
2019-05-18T14:09:42.280Z,7.75
2019-05-18T14:12:12.458Z,6.92
2019-05-18T14:14:42.573Z,7.22
2019-05-18T14:17:12.664Z,8.58
2019-05-18T14:19:42.772Z,8.68
2019-05-18T14:22:12.889Z,9.08
2019-05-18T14:24:42.976Z,8.65
2019-05-18T14:27:13.099Z,8.38
2019-05-18T14:29:43.235Z,7.90
2019-05-18T14:32:13.351Z,8.83
2019-05-18T14:34:43.422Z,12.07
2019-05-18T14:37:13.541Z,8.38
2019-05-18T14:39:43.633Z,7.70
2019-05-18T14:42:13.780Z,8.40
2019-05-18T14:44:43.845Z,7.87
2019-05-18T14:47:13.988Z,7.92
2019-05-18T14:49:46.559Z,6.90
2019-05-18T14:52:16.649Z,7.75
2019-05-18T14:54:46.743Z,7.80
2019-05-18T14:57:16.861Z,6.78
2019-05-18T14:59:46.956Z,6.75
2019-05-18T15:02:17.095Z,7.97
2019-05-18T15:04:47.189Z,7.65
2019-05-18T15:07:17.311Z,6.72
2019-05-18T15:09:47.387Z,7.15
2019-05-18T15:12:17.524Z,6.20
2019-05-18T15:14:47.663Z,5.47
2019-05-18T15:17:21.102Z,6.28
2019-05-18T15:19:51.195Z,6.75
2019-05-18T15:22:21.325Z,6.42
2019-05-18T15:24:51.492Z,6.30
2019-05-18T15:27:21.550Z,7.17
2019-05-18T15:29:51.679Z,6.95
2019-05-18T15:32:21.787Z,6.62
2019-05-18T15:34:51.937Z,7.30
2019-05-18T15:37:22.046Z,6.97
2019-05-18T15:39:52.551Z,7.37
2019-05-18T15:42:22.669Z,7.00
2019-05-18T15:44:52.879Z,6.47
2019-05-18T15:47:22.961Z,7.15
2019-05-18T15:49:53.079Z,7.55
2019-05-18T15:52:23.568Z,7.03
2019-05-18T15:54:53.664Z,6.92
2019-05-18T15:57:26.175Z,7.03
2019-05-18T15:59:55.624Z,6.67
2019-05-18T16:02:25.722Z,7.08
2019-05-18T16:04:55.814Z,6.53
2019-05-18T16:07:25.943Z,6.97
2019-05-18T16:09:56.034Z,6.83
2019-05-18T16:12:26.128Z,6.37
2019-05-18T16:14:56.238Z,7.03
2019-05-18T16:17:38.306Z,6.35
2019-05-18T16:19:58.450Z,6.45
2019-05-18T16:22:28.540Z,7.85
2019-05-18T16:24:58.719Z,7.00
2019-05-18T16:27:28.925Z,7.37
2019-05-18T16:29:59.094Z,7.42
2019-05-18T16:32:32.229Z,7.90
2019-05-18T16:35:04.014Z,7.00
2019-05-18T16:37:34.080Z,7.28
2019-05-18T16:40:04.304Z,7.50
2019-05-18T16:42:34.419Z,6.33
2019-05-18T16:45:04.895Z,7.10
2019-05-18T16:47:35.013Z,7.13
2019-05-18T16:50:06.575Z,8.03
2019-05-18T16:52:36.728Z,7.27
2019-05-18T16:55:07.522Z,7.57
2019-05-18T16:57:39.951Z,8.30
2019-05-18T17:00:15.419Z,6.93
2019-05-18T17:02:44.506Z,7.27
2019-05-18T17:05:15.553Z,8.00
2019-05-18T17:07:45.651Z,7.87
2019-05-18T17:10:15.982Z,9.50
2019-05-18T17:12:46.073Z,8.40
2019-05-18T17:15:16.441Z,11.87
2019-05-18T17:17:46.495Z,10.70
2019-05-18T17:20:16.682Z,9.83
2019-05-18T17:22:46.795Z,10.40
2019-05-18T17:25:19.580Z,9.83
2019-05-18T17:27:49.717Z,10.30
2019-05-18T17:30:21.088Z,9.73
2019-05-18T17:32:51.217Z,9.67
2019-05-18T17:35:21.450Z,9.80
2019-05-18T17:37:51.578Z,10.27
2019-05-18T17:40:21.775Z,9.90
2019-05-18T17:42:52.004Z,9.93
2019-05-18T17:45:22.476Z,9.63
2019-05-18T17:47:54.083Z,10.30
2019-05-18T17:50:24.182Z,9.93
2019-05-18T17:52:54.406Z,10.17
2019-05-18T17:55:24.517Z,14.13
2019-05-18T17:57:54.647Z,11.50
2019-05-18T18:00:24.758Z,12.27
2019-05-18T18:02:54.857Z,18.87
2019-05-18T18:05:24.961Z,14.07
2019-05-18T18:07:55.727Z,12.90
2019-05-18T18:10:26.052Z,10.07
2019-05-18T18:12:56.153Z,10.23
2019-05-18T18:15:26.650Z,10.20
2019-05-18T18:17:56.794Z,10.53
2019-05-18T18:20:26.878Z,11.00
2019-05-18T18:22:56.984Z,11.00
2019-05-18T18:25:27.061Z,10.77
2019-05-18T18:28:00.764Z,9.87
2019-05-18T18:30:30.879Z,10.37
2019-05-18T18:33:00.970Z,10.67
2019-05-18T18:35:31.196Z,9.70
2019-05-18T18:38:01.307Z,10.57
2019-05-18T18:40:31.405Z,9.83
2019-05-18T18:43:01.516Z,17.30
2019-05-18T18:45:33.437Z,10.97
2019-05-18T18:48:03.601Z,10.27
2019-05-18T18:50:33.695Z,9.37
2019-05-18T18:53:03.843Z,9.87
2019-05-18T18:55:33.925Z,10.27
2019-05-18T18:58:04.122Z,9.97
2019-05-18T19:00:34.182Z,10.10
2019-05-18T19:03:04.303Z,9.10
2019-05-18T19:05:34.393Z,10.73
2019-05-18T19:08:04.515Z,10.57
2019-05-18T19:10:34.588Z,11.40
2019-05-18T19:13:04.671Z,11.00
2019-05-18T19:15:34.760Z,14.20
2019-05-18T19:18:04.876Z,11.97
2019-05-18T19:20:34.979Z,10.93
2019-05-18T19:23:05.123Z,11.63
2019-05-18T19:25:35.164Z,11.93
2019-05-18T19:28:05.259Z,11.97
2019-05-18T19:30:35.367Z,12.53
2019-05-18T19:33:05.483Z,12.87
2019-05-18T19:35:35.571Z,13.73
2019-05-18T19:38:05.690Z,12.47
2019-05-18T19:40:35.811Z,12.57
2019-05-18T19:43:05.895Z,12.37
2019-05-18T19:45:36.023Z,13.47
2019-05-18T19:48:06.115Z,12.97
2019-05-18T19:50:36.254Z,12.10
2019-05-18T19:53:06.403Z,13.67
2019-05-18T19:55:36.502Z,13.87
2019-05-18T19:58:09.074Z,14.53
2019-05-18T20:00:38.487Z,13.40
2019-05-18T20:03:08.605Z,13.70
2019-05-18T20:05:38.662Z,13.93
2019-05-18T20:08:08.762Z,14.00
2019-05-18T20:10:38.854Z,14.00
2019-05-18T20:13:08.986Z,14.67
2019-05-18T20:15:39.179Z,14.07
2019-05-18T20:18:09.390Z,14.27
2019-05-18T20:20:39.548Z,16.07
2019-05-18T20:23:09.697Z,19.37
2019-05-18T20:25:39.808Z,16.17
2019-05-18T20:28:22.862Z,15.03
2019-05-18T20:30:43.835Z,14.80
2019-05-18T20:33:13.994Z,15.67
2019-05-18T20:35:46.135Z,16.13
2019-05-18T20:38:15.952Z,16.13
2019-05-18T20:40:46.054Z,14.87
2019-05-18T20:43:16.158Z,15.33
2019-05-18T20:45:46.282Z,16.10
2019-05-18T20:48:17.065Z,16.27
2019-05-18T20:50:47.289Z,16.40
2019-05-18T20:53:17.390Z,16.00
2019-05-18T20:55:47.572Z,16.43
2019-05-18T20:58:19.397Z,16.30
2019-05-18T21:00:49.529Z,15.97
2019-05-18T21:03:19.622Z,16.70
2019-05-18T21:05:49.889Z,17.87
2019-05-18T21:08:20.014Z,17.93
2019-05-18T21:10:50.223Z,18.40
2019-05-18T21:13:20.350Z,16.33
2019-05-18T21:15:50.470Z,17.33
2019-05-18T21:18:20.544Z,16.83
2019-05-18T21:20:50.661Z,17.40
2019-05-18T21:23:20.777Z,18.27
2019-05-18T21:25:50.876Z,18.90
2019-05-18T21:28:20.954Z,17.83
2019-05-18T21:30:51.069Z,17.37
2019-05-18T21:33:21.173Z,18.37
2019-05-18T21:35:51.294Z,20.60
2019-05-18T21:38:21.420Z,18.73
2019-05-18T21:40:51.764Z,18.00
2019-05-18T21:43:21.965Z,19.17
2019-05-18T21:45:52.074Z,18.27
2019-05-18T21:48:22.233Z,20.27
2019-05-18T21:50:52.413Z,19.20
2019-05-18T21:53:22.517Z,18.57
2019-05-18T21:55:52.614Z,19.43
2019-05-18T21:58:22.949Z,20.47
2019-05-18T22:00:53.603Z,18.57
2019-05-18T22:03:23.700Z,19.97
2019-05-18T22:05:53.973Z,18.57
2019-05-18T22:08:24.123Z,20.53
2019-05-18T22:10:54.392Z,20.20
2019-05-18T22:13:24.502Z,27.10
2019-05-18T22:15:54.604Z,20.90
2019-05-18T22:18:25.111Z,26.77
2019-05-18T22:20:55.377Z,21.97
2019-05-18T22:23:25.474Z,21.13
2019-05-18T22:25:57.153Z,21.17
2019-05-18T22:28:27.467Z,20.90
2019-05-18T22:30:57.564Z,21.77
2019-05-18T22:33:27.878Z,21.00
2019-05-18T22:35:58.020Z,23.03
2019-05-18T22:38:28.131Z,21.83
2019-05-18T22:40:58.226Z,22.80
2019-05-18T22:43:28.316Z,21.97
2019-05-18T22:45:58.408Z,22.13
2019-05-18T22:48:40.934Z,22.87
2019-05-18T22:51:00.325Z,22.50
2019-05-18T22:53:30.422Z,25.17
2019-05-18T22:56:02.272Z,25.07
2019-05-18T22:58:32.372Z,23.83
2019-05-18T23:01:02.456Z,24.57
2019-05-18T23:03:32.551Z,24.00
2019-05-18T23:06:02.680Z,28.27
2019-05-18T23:08:32.764Z,27.13
2019-05-18T23:11:02.834Z,24.33
2019-05-18T23:13:33.007Z,25.53
2019-05-18T23:16:03.102Z,25.73
2019-05-18T23:18:33.213Z,23.40
2019-05-18T23:21:03.595Z,24.83
2019-05-18T23:23:33.730Z,25.53
2019-05-18T23:26:03.809Z,25.43
2019-05-18T23:28:33.993Z,24.17
2019-05-18T23:31:04.057Z,22.80
2019-05-18T23:33:34.159Z,24.57
2019-05-18T23:36:04.250Z,23.63
2019-05-18T23:38:34.356Z,24.40
2019-05-18T23:41:04.419Z,25.87
2019-05-18T23:43:34.498Z,22.67
2019-05-18T23:46:04.582Z,23.43
2019-05-18T23:48:34.695Z,23.67
2019-05-18T23:51:04.760Z,21.70
2019-05-18T23:53:34.844Z,21.33
2019-05-18T23:56:04.974Z,21.53
2019-05-18T23:58:35.083Z,20.47
